Thrali, Washington
Current Conditions -  °F | °C
As of 9:53 PM on Saturday 22 Nov 2014 (Local Time) from KELN Reporting Station
Clear Clear  
Wind Chill: 28°   Ceiling: Unl
Heat Index: 35°   Visibility: 10mi
Dew Point: 31°   Wind: 9mph
Humidity: 85%   Direction: 270°W
Pressure: 30.02"   Gusts: NA
Location:  47.0155°N, 120.311°W
Report Text: KELN 230553Z AUTO 27008KT 10SM CLR 02/M01 A3002 RMK AO2 SLP178 60000 T00171006 10056 20017 51021
Loading
Personal Weather Stations






























Interactive Weather Map New forecast layout! Learn more

10-Day Weather Forecast

Advertisements
Track Severe Weather on mobile